sensor_id;sensor_type;location;lat;lon;timestamp;P1;durP1;ratioP1;P2;durP2;ratioP2
57241;SDS011;43095;53.302;5.786;2022-10-23T00:01:40;16.90;;;6.45;;
57241;SDS011;43095;53.302;5.786;2022-10-23T00:04:11;16.20;;;7.07;;
57241;SDS011;43095;53.302;5.786;2022-10-23T00:06:46;14.35;;;5.85;;
57241;SDS011;43095;53.302;5.786;2022-10-23T00:09:15;16.90;;;6.50;;
57241;SDS011;43095;53.302;5.786;2022-10-23T00:11:45;15.07;;;6.70;;
57241;SDS011;43095;53.302;5.786;2022-10-23T00:14:18;16.40;;;6.47;;
57241;SDS011;43095;53.302;5.786;2022-10-23T00:16:49;14.27;;;7.20;;
57241;SDS011;43095;53.302;5.786;2022-10-23T00:19:17;14.50;;;7.22;;
57241;SDS011;43095;53.302;5.786;2022-10-23T00:21:44;13.98;;;7.15;;
57241;SDS011;43095;53.302;5.786;2022-10-23T00:24:15;11.52;;;6.75;;
57241;SDS011;43095;53.302;5.786;2022-10-23T00:26:43;14.93;;;7.70;;
57241;SDS011;43095;53.302;5.786;2022-10-23T00:29:12;13.23;;;7.40;;
57241;SDS011;43095;53.302;5.786;2022-10-23T00:31:39;15.50;;;7.60;;
57241;SDS011;43095;53.302;5.786;2022-10-23T00:34:07;18.58;;;8.85;;
57241;SDS011;43095;53.302;5.786;2022-10-23T00:36:36;13.48;;;7.85;;
57241;SDS011;43095;53.302;5.786;2022-10-23T00:39:05;18.83;;;9.20;;
57241;SDS011;43095;53.302;5.786;2022-10-23T00:41:32;14.93;;;7.97;;
57241;SDS011;43095;53.302;5.786;2022-10-23T00:44:02;14.60;;;8.02;;
57241;SDS011;43095;53.302;5.786;2022-10-23T00:46:32;17.02;;;8.55;;
57241;SDS011;43095;53.302;5.786;2022-10-23T00:49:01;18.23;;;9.70;;
57241;SDS011;43095;53.302;5.786;2022-10-23T00:51:32;17.13;;;9.40;;
57241;SDS011;43095;53.302;5.786;2022-10-23T00:54:09;20.20;;;9.25;;
57241;SDS011;43095;53.302;5.786;2022-10-23T00:56:58;18.73;;;8.88;;
57241;SDS011;43095;53.302;5.786;2022-10-23T00:59:28;14.15;;;8.65;;
57241;SDS011;43095;53.302;5.786;2022-10-23T01:01:56;20.40;;;9.55;;
57241;SDS011;43095;53.302;5.786;2022-10-23T01:04:26;21.80;;;10.02;;
57241;SDS011;43095;53.302;5.786;2022-10-23T01:06:57;19.23;;;9.25;;
57241;SDS011;43095;53.302;5.786;2022-10-23T01:09:47;13.48;;;8.75;;
57241;SDS011;43095;53.302;5.786;2022-10-23T01:12:31;17.48;;;9.50;;
57241;SDS011;43095;53.302;5.786;2022-10-23T01:17:37;18.00;;;9.73;;
57241;SDS011;43095;53.302;5.786;2022-10-23T01:20:22;13.38;;;9.27;;
57241;SDS011;43095;53.302;5.786;2022-10-23T01:32:06;16.13;;;8.50;;
57241;SDS011;43095;53.302;5.786;2022-10-23T01:34:45;16.88;;;9.02;;
57241;SDS011;43095;53.302;5.786;2022-10-23T01:37:20;16.42;;;9.13;;
57241;SDS011;43095;53.302;5.786;2022-10-23T01:39:58;18.48;;;8.75;;
57241;SDS011;43095;53.302;5.786;2022-10-23T01:42:36;17.15;;;9.25;;
57241;SDS011;43095;53.302;5.786;2022-10-23T01:45:08;18.35;;;10.32;;
57241;SDS011;43095;53.302;5.786;2022-10-23T01:47:45;18.30;;;11.43;;
57241;SDS011;43095;53.302;5.786;2022-10-23T01:50:17;19.23;;;10.70;;
57241;SDS011;43095;53.302;5.786;2022-10-23T01:52:51;20.38;;;11.32;;
57241;SDS011;43095;53.302;5.786;2022-10-23T01:55:19;17.20;;;10.32;;
57241;SDS011;43095;53.302;5.786;2022-10-23T01:57:48;15.77;;;9.75;;
57241;SDS011;43095;53.302;5.786;2022-10-23T02:00:18;20.95;;;10.73;;
57241;SDS011;43095;53.302;5.786;2022-10-23T02:02:52;22.20;;;10.73;;
57241;SDS011;43095;53.302;5.786;2022-10-23T02:05:30;16.77;;;10.20;;
57241;SDS011;43095;53.302;5.786;2022-10-23T02:08:00;15.82;;;9.73;;
57241;SDS011;43095;53.302;5.786;2022-10-23T02:10:40;15.82;;;9.57;;
57241;SDS011;43095;53.302;5.786;2022-10-23T02:13:33;18.52;;;9.88;;
57241;SDS011;43095;53.302;5.786;2022-10-23T02:18:54;21.65;;;11.68;;
57241;SDS011;43095;53.302;5.786;2022-10-23T02:21:41;20.95;;;11.98;;
57241;SDS011;43095;53.302;5.786;2022-10-23T02:24:22;16.98;;;11.23;;
57241;SDS011;43095;53.302;5.786;2022-10-23T02:27:15;20.75;;;11.48;;
57241;SDS011;43095;53.302;5.786;2022-10-23T02:30:10;26.63;;;13.25;;
57241;SDS011;43095;53.302;5.786;2022-10-23T02:32:48;16.92;;;11.52;;
57241;SDS011;43095;53.302;5.786;2022-10-23T02:35:21;23.63;;;12.38;;
57241;SDS011;43095;53.302;5.786;2022-10-23T02:37:59;17.13;;;11.70;;
57241;SDS011;43095;53.302;5.786;2022-10-23T02:40:34;15.77;;;11.40;;
57241;SDS011;43095;53.302;5.786;2022-10-23T02:43:17;19.63;;;11.10;;
57241;SDS011;43095;53.302;5.786;2022-10-23T02:45:59;12.73;;;9.90;;
57241;SDS011;43095;53.302;5.786;2022-10-23T02:49:06;12.65;;;10.60;;
57241;SDS011;43095;53.302;5.786;2022-10-23T03:00:05;21.00;;;14.40;;
57241;SDS011;43095;53.302;5.786;2022-10-23T03:02:40;23.25;;;12.68;;
57241;SDS011;43095;53.302;5.786;2022-10-23T03:05:14;18.48;;;12.23;;
57241;SDS011;43095;53.302;5.786;2022-10-23T03:07:46;19.27;;;13.23;;
57241;SDS011;43095;53.302;5.786;2022-10-23T03:10:16;16.98;;;12.13;;
57241;SDS011;43095;53.302;5.786;2022-10-23T03:12:52;17.63;;;11.20;;
57241;SDS011;43095;53.302;5.786;2022-10-23T03:15:19;13.70;;;11.45;;
57241;SDS011;43095;53.302;5.786;2022-10-23T03:17:50;16.30;;;11.20;;
57241;SDS011;43095;53.302;5.786;2022-10-23T03:20:17;16.25;;;11.43;;
57241;SDS011;43095;53.302;5.786;2022-10-23T03:25:17;15.48;;;11.30;;
57241;SDS011;43095;53.302;5.786;2022-10-23T03:27:44;24.92;;;12.18;;
57241;SDS011;43095;53.302;5.786;2022-10-23T03:30:14;15.50;;;10.25;;
57241;SDS011;43095;53.302;5.786;2022-10-23T03:32:42;12.48;;;9.27;;
57241;SDS011;43095;53.302;5.786;2022-10-23T03:35:10;17.52;;;9.88;;
57241;SDS011;43095;53.302;5.786;2022-10-23T03:37:38;14.88;;;10.10;;
57241;SDS011;43095;53.302;5.786;2022-10-23T03:40:06;16.25;;;9.07;;
57241;SDS011;43095;53.302;5.786;2022-10-23T03:42:34;17.15;;;10.30;;
57241;SDS011;43095;53.302;5.786;2022-10-23T03:45:01;12.93;;;9.85;;
57241;SDS011;43095;53.302;5.786;2022-10-23T03:47:29;13.48;;;9.93;;
57241;SDS011;43095;53.302;5.786;2022-10-23T03:49:59;17.70;;;11.30;;
57241;SDS011;43095;53.302;5.786;2022-10-23T03:52:29;14.50;;;10.05;;
57241;SDS011;43095;53.302;5.786;2022-10-23T03:54:57;16.27;;;10.70;;
57241;SDS011;43095;53.302;5.786;2022-10-23T03:57:24;38.13;;;17.58;;
57241;SDS011;43095;53.302;5.786;2022-10-23T03:59:52;14.32;;;11.02;;
57241;SDS011;43095;53.302;5.786;2022-10-23T04:02:19;15.43;;;11.70;;
57241;SDS011;43095;53.302;5.786;2022-10-23T04:04:47;14.43;;;10.77;;
57241;SDS011;43095;53.302;5.786;2022-10-23T04:07:14;23.38;;;12.95;;
57241;SDS011;43095;53.302;5.786;2022-10-23T04:09:41;15.43;;;10.52;;
57241;SDS011;43095;53.302;5.786;2022-10-23T04:12:14;16.00;;;10.82;;
57241;SDS011;43095;53.302;5.786;2022-10-23T04:14:41;13.95;;;9.63;;
57241;SDS011;43095;53.302;5.786;2022-10-23T04:17:08;17.20;;;10.60;;
57241;SDS011;43095;53.302;5.786;2022-10-23T04:19:35;15.70;;;9.95;;
57241;SDS011;43095;53.302;5.786;2022-10-23T04:22:03;15.95;;;10.50;;
57241;SDS011;43095;53.302;5.786;2022-10-23T04:24:32;15.45;;;11.35;;
57241;SDS011;43095;53.302;5.786;2022-10-23T04:27:00;19.13;;;10.85;;
57241;SDS011;43095;53.302;5.786;2022-10-23T04:29:28;16.35;;;11.45;;
57241;SDS011;43095;53.302;5.786;2022-10-23T04:31:57;16.27;;;10.60;;
57241;SDS011;43095;53.302;5.786;2022-10-23T04:34:25;17.30;;;11.32;;
57241;SDS011;43095;53.302;5.786;2022-10-23T04:36:55;16.30;;;11.43;;
57241;SDS011;43095;53.302;5.786;2022-10-23T04:39:22;13.70;;;10.40;;
57241;SDS011;43095;53.302;5.786;2022-10-23T04:41:49;18.10;;;10.70;;
57241;SDS011;43095;53.302;5.786;2022-10-23T04:44:18;19.10;;;12.25;;
57241;SDS011;43095;53.302;5.786;2022-10-23T04:46:45;26.63;;;15.45;;
57241;SDS011;43095;53.302;5.786;2022-10-23T04:49:13;17.52;;;11.45;;
57241;SDS011;43095;53.302;5.786;2022-10-23T04:52:03;15.98;;;11.93;;
57241;SDS011;43095;53.302;5.786;2022-10-23T04:54:50;14.90;;;10.13;;
57241;SDS011;43095;53.302;5.786;2022-10-23T04:57:36;16.85;;;10.43;;
57241;SDS011;43095;53.302;5.786;2022-10-23T05:00:07;15.57;;;11.00;;
57241;SDS011;43095;53.302;5.786;2022-10-23T05:02:43;16.52;;;10.80;;
57241;SDS011;43095;53.302;5.786;2022-10-23T05:05:15;17.90;;;12.10;;
57241;SDS011;43095;53.302;5.786;2022-10-23T05:07:55;21.38;;;13.95;;
57241;SDS011;43095;53.302;5.786;2022-10-23T05:10:28;16.65;;;11.20;;
57241;SDS011;43095;53.302;5.786;2022-10-23T05:13:10;16.80;;;11.63;;
57241;SDS011;43095;53.302;5.786;2022-10-23T05:15:39;18.23;;;11.23;;
57241;SDS011;43095;53.302;5.786;2022-10-23T05:18:11;16.63;;;11.95;;
57241;SDS011;43095;53.302;5.786;2022-10-23T05:21:01;17.33;;;11.07;;
57241;SDS011;43095;53.302;5.786;2022-10-23T05:23:40;17.67;;;11.30;;
57241;SDS011;43095;53.302;5.786;2022-10-23T05:26:14;13.80;;;10.68;;
57241;SDS011;43095;53.302;5.786;2022-10-23T05:28:45;16.63;;;11.52;;
57241;SDS011;43095;53.302;5.786;2022-10-23T05:31:18;16.13;;;11.52;;
57241;SDS011;43095;53.302;5.786;2022-10-23T05:33:49;17.80;;;12.07;;
57241;SDS011;43095;53.302;5.786;2022-10-23T05:36:19;16.13;;;10.90;;
57241;SDS011;43095;53.302;5.786;2022-10-23T05:38:53;13.30;;;11.50;;
57241;SDS011;43095;53.302;5.786;2022-10-23T05:41:24;15.13;;;11.32;;
57241;SDS011;43095;53.302;5.786;2022-10-23T05:43:56;12.27;;;9.68;;
57241;SDS011;43095;53.302;5.786;2022-10-23T05:46:42;15.02;;;10.88;;
57241;SDS011;43095;53.302;5.786;2022-10-23T05:49:30;18.80;;;12.25;;
57241;SDS011;43095;53.302;5.786;2022-10-23T05:52:10;13.40;;;10.05;;
57241;SDS011;43095;53.302;5.786;2022-10-23T05:54:50;16.95;;;11.43;;
57241;SDS011;43095;53.302;5.786;2022-10-23T05:57:56;15.82;;;10.88;;
57241;SDS011;43095;53.302;5.786;2022-10-23T06:00:43;14.75;;;12.02;;
57241;SDS011;43095;53.302;5.786;2022-10-23T06:03:31;14.88;;;11.15;;
57241;SDS011;43095;53.302;5.786;2022-10-23T06:05:59;23.05;;;14.15;;
57241;SDS011;43095;53.302;5.786;2022-10-23T06:08:38;18.30;;;13.00;;
57241;SDS011;43095;53.302;5.786;2022-10-23T06:11:09;23.65;;;14.55;;
57241;SDS011;43095;53.302;5.786;2022-10-23T06:13:41;29.10;;;14.90;;
57241;SDS011;43095;53.302;5.786;2022-10-23T06:16:13;22.13;;;14.68;;
57241;SDS011;43095;53.302;5.786;2022-10-23T06:18:42;16.38;;;12.48;;
57241;SDS011;43095;53.302;5.786;2022-10-23T06:21:13;21.95;;;13.88;;
57241;SDS011;43095;53.302;5.786;2022-10-23T06:23:44;20.52;;;14.43;;
57241;SDS011;43095;53.302;5.786;2022-10-23T06:26:29;18.85;;;14.20;;
57241;SDS011;43095;53.302;5.786;2022-10-23T06:29:05;34.55;;;18.92;;
57241;SDS011;43095;53.302;5.786;2022-10-23T06:31:36;20.10;;;13.13;;
57241;SDS011;43095;53.302;5.786;2022-10-23T06:34:04;21.10;;;14.70;;
57241;SDS011;43095;53.302;5.786;2022-10-23T06:36:31;17.25;;;12.82;;
57241;SDS011;43095;53.302;5.786;2022-10-23T06:39:09;21.88;;;14.73;;
57241;SDS011;43095;53.302;5.786;2022-10-23T06:41:59;17.52;;;13.73;;
57241;SDS011;43095;53.302;5.786;2022-10-23T06:44:52;18.48;;;13.73;;
57241;SDS011;43095;53.302;5.786;2022-10-23T06:47:39;24.58;;;15.50;;
57241;SDS011;43095;53.302;5.786;2022-10-23T06:50:26;31.17;;;17.02;;
57241;SDS011;43095;53.302;5.786;2022-10-23T06:52:58;27.55;;;16.17;;
57241;SDS011;43095;53.302;5.786;2022-10-23T06:55:27;30.35;;;18.35;;
57241;SDS011;43095;53.302;5.786;2022-10-23T06:57:56;33.83;;;20.27;;
57241;SDS011;43095;53.302;5.786;2022-10-23T07:00:24;28.02;;;17.77;;
57241;SDS011;43095;53.302;5.786;2022-10-23T07:02:52;35.83;;;20.33;;
57241;SDS011;43095;53.302;5.786;2022-10-23T07:05:21;27.27;;;18.45;;
57241;SDS011;43095;53.302;5.786;2022-10-23T07:07:48;37.38;;;19.40;;
57241;SDS011;43095;53.302;5.786;2022-10-23T07:10:31;25.20;;;16.50;;
57241;SDS011;43095;53.302;5.786;2022-10-23T07:12:59;28.92;;;17.88;;
57241;SDS011;43095;53.302;5.786;2022-10-23T07:15:35;29.90;;;18.30;;
57241;SDS011;43095;53.302;5.786;2022-10-23T07:18:07;32.92;;;18.50;;
57241;SDS011;43095;53.302;5.786;2022-10-23T07:20:58;31.70;;;20.52;;
57241;SDS011;43095;53.302;5.786;2022-10-23T07:23:28;28.33;;;18.63;;
57241;SDS011;43095;53.302;5.786;2022-10-23T07:25:55;27.38;;;17.70;;
57241;SDS011;43095;53.302;5.786;2022-10-23T07:28:33;29.13;;;18.23;;
57241;SDS011;43095;53.302;5.786;2022-10-23T07:31:01;25.75;;;17.35;;
57241;SDS011;43095;53.302;5.786;2022-10-23T07:33:50;29.42;;;18.92;;
57241;SDS011;43095;53.302;5.786;2022-10-23T07:36:19;33.28;;;18.58;;
57241;SDS011;43095;53.302;5.786;2022-10-23T07:38:47;30.13;;;17.77;;
57241;SDS011;43095;53.302;5.786;2022-10-23T07:41:15;28.05;;;16.13;;
57241;SDS011;43095;53.302;5.786;2022-10-23T07:43:43;27.42;;;17.95;;
57241;SDS011;43095;53.302;5.786;2022-10-23T07:46:10;29.27;;;16.73;;
57241;SDS011;43095;53.302;5.786;2022-10-23T07:48:47;27.20;;;16.67;;
57241;SDS011;43095;53.302;5.786;2022-10-23T07:51:15;21.80;;;14.80;;
57241;SDS011;43095;53.302;5.786;2022-10-23T07:53:49;23.73;;;16.08;;
57241;SDS011;43095;53.302;5.786;2022-10-23T07:56:30;27.38;;;15.63;;
57241;SDS011;43095;53.302;5.786;2022-10-23T07:59:17;30.63;;;16.63;;
57241;SDS011;43095;53.302;5.786;2022-10-23T08:01:51;27.63;;;16.85;;
57241;SDS011;43095;53.302;5.786;2022-10-23T08:04:26;23.83;;;15.55;;
57241;SDS011;43095;53.302;5.786;2022-10-23T08:07:01;39.08;;;17.65;;
57241;SDS011;43095;53.302;5.786;2022-10-23T08:09:35;26.15;;;16.98;;
57241;SDS011;43095;53.302;5.786;2022-10-23T08:12:04;25.25;;;16.08;;
57241;SDS011;43095;53.302;5.786;2022-10-23T08:14:32;27.25;;;16.52;;
57241;SDS011;43095;53.302;5.786;2022-10-23T08:17:01;27.40;;;16.38;;
57241;SDS011;43095;53.302;5.786;2022-10-23T08:19:49;27.88;;;15.27;;
57241;SDS011;43095;53.302;5.786;2022-10-23T08:22:21;20.02;;;15.13;;
57241;SDS011;43095;53.302;5.786;2022-10-23T08:24:49;23.42;;;16.15;;
57241;SDS011;43095;53.302;5.786;2022-10-23T08:27:16;28.40;;;15.90;;
57241;SDS011;43095;53.302;5.786;2022-10-23T08:29:48;24.45;;;15.30;;
57241;SDS011;43095;53.302;5.786;2022-10-23T08:32:15;23.70;;;15.15;;
57241;SDS011;43095;53.302;5.786;2022-10-23T08:35:02;29.65;;;16.33;;
57241;SDS011;43095;53.302;5.786;2022-10-23T08:37:32;24.42;;;15.50;;
57241;SDS011;43095;53.302;5.786;2022-10-23T08:39:59;27.92;;;15.75;;
57241;SDS011;43095;53.302;5.786;2022-10-23T08:45:46;25.42;;;15.15;;
57241;SDS011;43095;53.302;5.786;2022-10-23T08:51:34;25.75;;;16.05;;
57241;SDS011;43095;53.302;5.786;2022-10-23T08:56:59;28.15;;;16.85;;
57241;SDS011;43095;53.302;5.786;2022-10-23T08:59:31;29.88;;;19.75;;
57241;SDS011;43095;53.302;5.786;2022-10-23T09:02:48;29.65;;;17.55;;
57241;SDS011;43095;53.302;5.786;2022-10-23T09:04:57;26.65;;;16.88;;
57241;SDS011;43095;53.302;5.786;2022-10-23T09:07:38;23.45;;;14.63;;
57241;SDS011;43095;53.302;5.786;2022-10-23T09:10:36;21.42;;;14.40;;
57241;SDS011;43095;53.302;5.786;2022-10-23T09:13:19;27.00;;;15.18;;
57241;SDS011;43095;53.302;5.786;2022-10-23T09:16:05;20.70;;;14.35;;
57241;SDS011;43095;53.302;5.786;2022-10-23T09:18:45;21.30;;;13.50;;
57241;SDS011;43095;53.302;5.786;2022-10-23T09:21:15;17.98;;;12.85;;
57241;SDS011;43095;53.302;5.786;2022-10-23T09:23:43;21.77;;;12.73;;
57241;SDS011;43095;53.302;5.786;2022-10-23T09:26:14;22.65;;;13.05;;
57241;SDS011;43095;53.302;5.786;2022-10-23T09:28:49;16.33;;;12.68;;
57241;SDS011;43095;53.302;5.786;2022-10-23T09:31:20;21.13;;;12.77;;
57241;SDS011;43095;53.302;5.786;2022-10-23T09:33:56;21.23;;;12.30;;
57241;SDS011;43095;53.302;5.786;2022-10-23T09:36:29;17.88;;;12.38;;
57241;SDS011;43095;53.302;5.786;2022-10-23T09:38:57;20.85;;;11.85;;
57241;SDS011;43095;53.302;5.786;2022-10-23T09:41:38;18.65;;;12.02;;
57241;SDS011;43095;53.302;5.786;2022-10-23T09:49:20;16.08;;;11.02;;
57241;SDS011;43095;53.302;5.786;2022-10-23T09:54:54;16.55;;;10.27;;
57241;SDS011;43095;53.302;5.786;2022-10-23T09:57:42;21.15;;;10.70;;
57241;SDS011;43095;53.302;5.786;2022-10-23T10:00:15;20.15;;;10.65;;
57241;SDS011;43095;53.302;5.786;2022-10-23T10:05:31;16.10;;;9.93;;
57241;SDS011;43095;53.302;5.786;2022-10-23T10:10:50;15.93;;;9.35;;
57241;SDS011;43095;53.302;5.786;2022-10-23T10:16:15;15.13;;;9.65;;
57241;SDS011;43095;53.302;5.786;2022-10-23T10:21:51;13.40;;;8.80;;
57241;SDS011;43095;53.302;5.786;2022-10-23T10:24:24;16.30;;;8.88;;
57241;SDS011;43095;53.302;5.786;2022-10-23T10:29:41;15.18;;;9.70;;
57241;SDS011;43095;53.302;5.786;2022-10-23T10:32:50;13.38;;;8.60;;
57241;SDS011;43095;53.302;5.786;2022-10-23T10:47:10;14.73;;;8.52;;
57241;SDS011;43095;53.302;5.786;2022-10-23T10:49:51;12.85;;;8.18;;
57241;SDS011;43095;53.302;5.786;2022-10-23T10:53:01;12.35;;;7.95;;
57241;SDS011;43095;53.302;5.786;2022-10-23T11:00:57;11.52;;;6.68;;
57241;SDS011;43095;53.302;5.786;2022-10-23T11:03:48;10.30;;;6.45;;
57241;SDS011;43095;53.302;5.786;2022-10-23T11:06:21;10.98;;;5.88;;
57241;SDS011;43095;53.302;5.786;2022-10-23T11:08:51;11.35;;;6.45;;
57241;SDS011;43095;53.302;5.786;2022-10-23T11:11:40;11.20;;;6.38;;
57241;SDS011;43095;53.302;5.786;2022-10-23T11:14:15;12.60;;;6.60;;
57241;SDS011;43095;53.302;5.786;2022-10-23T11:16:58;11.80;;;5.80;;
57241;SDS011;43095;53.302;5.786;2022-10-23T11:19:46;10.57;;;6.13;;
57241;SDS011;43095;53.302;5.786;2022-10-23T11:38:47;11.48;;;5.28;;
57241;SDS011;43095;53.302;5.786;2022-10-23T11:41:17;8.65;;;5.30;;
57241;SDS011;43095;53.302;5.786;2022-10-23T11:43:57;8.20;;;4.80;;
57241;SDS011;43095;53.302;5.786;2022-10-23T11:46:32;9.95;;;4.95;;
57241;SDS011;43095;53.302;5.786;2022-10-23T11:49:03;11.75;;;4.72;;
57241;SDS011;43095;53.302;5.786;2022-10-23T11:51:35;8.68;;;3.88;;
57241;SDS011;43095;53.302;5.786;2022-10-23T11:59:31;12.38;;;4.50;;
57241;SDS011;43095;53.302;5.786;2022-10-23T12:02:01;7.50;;;3.55;;
57241;SDS011;43095;53.302;5.786;2022-10-23T12:04:47;7.30;;;4.20;;
57241;SDS011;43095;53.302;5.786;2022-10-23T12:07:26;10.85;;;4.25;;
57241;SDS011;43095;53.302;5.786;2022-10-23T12:12:32;8.05;;;4.00;;
57241;SDS011;43095;53.302;5.786;2022-10-23T12:17:41;7.47;;;3.72;;
57241;SDS011;43095;53.302;5.786;2022-10-23T12:26:03;8.20;;;3.42;;
57241;SDS011;43095;53.302;5.786;2022-10-23T12:37:01;10.13;;;3.22;;
57241;SDS011;43095;53.302;5.786;2022-10-23T12:39:50;7.55;;;2.92;;
57241;SDS011;43095;53.302;5.786;2022-10-23T12:42:24;10.25;;;3.20;;
57241;SDS011;43095;53.302;5.786;2022-10-23T12:44:58;6.43;;;3.53;;
57241;SDS011;43095;53.302;5.786;2022-10-23T12:47:43;13.65;;;3.78;;
57241;SDS011;43095;53.302;5.786;2022-10-23T12:50:20;13.73;;;6.47;;
57241;SDS011;43095;53.302;5.786;2022-10-23T12:52:55;6.43;;;3.03;;
57241;SDS011;43095;53.302;5.786;2022-10-23T12:55:52;7.53;;;3.55;;
57241;SDS011;43095;53.302;5.786;2022-10-23T12:58:32;5.90;;;3.45;;
57241;SDS011;43095;53.302;5.786;2022-10-23T13:01:20;8.48;;;3.25;;
57241;SDS011;43095;53.302;5.786;2022-10-23T13:04:10;8.68;;;3.80;;
57241;SDS011;43095;53.302;5.786;2022-10-23T13:06:47;6.35;;;3.85;;
57241;SDS011;43095;53.302;5.786;2022-10-23T13:17:41;5.90;;;3.75;;
57241;SDS011;43095;53.302;5.786;2022-10-23T13:26:22;6.82;;;3.08;;
57241;SDS011;43095;53.302;5.786;2022-10-23T13:29:02;10.68;;;3.40;;
57241;SDS011;43095;53.302;5.786;2022-10-23T13:31:50;7.75;;;2.85;;
57241;SDS011;43095;53.302;5.786;2022-10-23T13:34:26;6.82;;;3.63;;
57241;SDS011;43095;53.302;5.786;2022-10-23T13:41:51;11.80;;;3.40;;
57241;SDS011;43095;53.302;5.786;2022-10-23T13:45:14;11.00;;;3.88;;
57241;SDS011;43095;53.302;5.786;2022-10-23T13:55:14;7.93;;;3.25;;
57241;SDS011;43095;53.302;5.786;2022-10-23T13:57:57;9.02;;;3.15;;
57241;SDS011;43095;53.302;5.786;2022-10-23T14:00:29;8.30;;;3.28;;
57241;SDS011;43095;53.302;5.786;2022-10-23T14:03:10;8.63;;;3.92;;
57241;SDS011;43095;53.302;5.786;2022-10-23T14:06:36;7.97;;;3.40;;
57241;SDS011;43095;53.302;5.786;2022-10-23T14:09:10;7.68;;;3.42;;
57241;SDS011;43095;53.302;5.786;2022-10-23T14:11:48;5.45;;;3.25;;
57241;SDS011;43095;53.302;5.786;2022-10-23T14:14:19;6.07;;;3.22;;
57241;SDS011;43095;53.302;5.786;2022-10-23T14:16:51;8.88;;;3.35;;
57241;SDS011;43095;53.302;5.786;2022-10-23T14:19:21;9.80;;;3.92;;
57241;SDS011;43095;53.302;5.786;2022-10-23T14:21:50;8.95;;;2.83;;
57241;SDS011;43095;53.302;5.786;2022-10-23T14:24:18;7.35;;;2.90;;
57241;SDS011;43095;53.302;5.786;2022-10-23T14:27:06;8.18;;;3.30;;
57241;SDS011;43095;53.302;5.786;2022-10-23T14:29:38;7.13;;;3.00;;
57241;SDS011;43095;53.302;5.786;2022-10-23T14:32:06;5.90;;;3.13;;
57241;SDS011;43095;53.302;5.786;2022-10-23T14:34:34;6.75;;;3.80;;
57241;SDS011;43095;53.302;5.786;2022-10-23T14:37:10;8.18;;;3.08;;
57241;SDS011;43095;53.302;5.786;2022-10-23T14:39:45;5.57;;;3.33;;
57241;SDS011;43095;53.302;5.786;2022-10-23T14:42:38;9.93;;;4.13;;
57241;SDS011;43095;53.302;5.786;2022-10-23T14:45:19;7.57;;;3.03;;
57241;SDS011;43095;53.302;5.786;2022-10-23T14:47:49;7.38;;;3.20;;
57241;SDS011;43095;53.302;5.786;2022-10-23T14:50:29;8.38;;;3.30;;
57241;SDS011;43095;53.302;5.786;2022-10-23T14:53:10;14.70;;;3.22;;
57241;SDS011;43095;53.302;5.786;2022-10-23T14:55:40;7.80;;;2.95;;
57241;SDS011;43095;53.302;5.786;2022-10-23T14:58:21;7.25;;;2.80;;
57241;SDS011;43095;53.302;5.786;2022-10-23T15:01:15;4.80;;;2.53;;
57241;SDS011;43095;53.302;5.786;2022-10-23T15:03:55;5.03;;;2.65;;
57241;SDS011;43095;53.302;5.786;2022-10-23T15:06:29;5.65;;;2.50;;
57241;SDS011;43095;53.302;5.786;2022-10-23T15:08:58;12.10;;;2.80;;
57241;SDS011;43095;53.302;5.786;2022-10-23T15:11:27;9.93;;;3.58;;
57241;SDS011;43095;53.302;5.786;2022-10-23T15:14:08;6.70;;;2.53;;
57241;SDS011;43095;53.302;5.786;2022-10-23T15:16:41;8.35;;;2.75;;
57241;SDS011;43095;53.302;5.786;2022-10-23T15:24:59;8.35;;;3.15;;
57241;SDS011;43095;53.302;5.786;2022-10-23T15:27:53;7.45;;;3.33;;
57241;SDS011;43095;53.302;5.786;2022-10-23T15:30:32;8.68;;;3.33;;
57241;SDS011;43095;53.302;5.786;2022-10-23T15:33:20;7.07;;;3.50;;
57241;SDS011;43095;53.302;5.786;2022-10-23T15:35:51;9.23;;;3.63;;
57241;SDS011;43095;53.302;5.786;2022-10-23T15:38:24;5.78;;;3.13;;
57241;SDS011;43095;53.302;5.786;2022-10-23T15:40:52;10.40;;;3.65;;
57241;SDS011;43095;53.302;5.786;2022-10-23T15:43:26;7.38;;;2.72;;
57241;SDS011;43095;53.302;5.786;2022-10-23T15:46:02;6.47;;;2.85;;
57241;SDS011;43095;53.302;5.786;2022-10-23T15:48:35;5.95;;;3.28;;
57241;SDS011;43095;53.302;5.786;2022-10-23T15:51:02;9.02;;;3.78;;
57241;SDS011;43095;53.302;5.786;2022-10-23T15:53:38;6.57;;;2.85;;
57241;SDS011;43095;53.302;5.786;2022-10-23T15:56:05;5.95;;;2.90;;
57241;SDS011;43095;53.302;5.786;2022-10-23T15:58:35;4.90;;;3.10;;
57241;SDS011;43095;53.302;5.786;2022-10-23T16:01:05;6.07;;;2.67;;
57241;SDS011;43095;53.302;5.786;2022-10-23T16:03:36;7.43;;;3.28;;
57241;SDS011;43095;53.302;5.786;2022-10-23T16:06:12;6.07;;;3.08;;
57241;SDS011;43095;53.302;5.786;2022-10-23T16:08:40;6.95;;;3.17;;
57241;SDS011;43095;53.302;5.786;2022-10-23T16:11:29;6.18;;;3.10;;
57241;SDS011;43095;53.302;5.786;2022-10-23T16:13:59;6.22;;;2.92;;
57241;SDS011;43095;53.302;5.786;2022-10-23T16:16:36;7.85;;;3.10;;
57241;SDS011;43095;53.302;5.786;2022-10-23T16:19:04;5.32;;;2.60;;
57241;SDS011;43095;53.302;5.786;2022-10-23T16:22:11;6.22;;;3.60;;
57241;SDS011;43095;53.302;5.786;2022-10-23T16:25:06;6.85;;;3.13;;
57241;SDS011;43095;53.302;5.786;2022-10-23T16:27:35;5.95;;;3.00;;
57241;SDS011;43095;53.302;5.786;2022-10-23T16:30:21;5.25;;;2.70;;
57241;SDS011;43095;53.302;5.786;2022-10-23T16:32:50;6.65;;;3.05;;
57241;SDS011;43095;53.302;5.786;2022-10-23T16:35:35;5.22;;;3.25;;
57241;SDS011;43095;53.302;5.786;2022-10-23T16:38:13;9.40;;;2.97;;
57241;SDS011;43095;53.302;5.786;2022-10-23T16:40:53;6.32;;;2.70;;
57241;SDS011;43095;53.302;5.786;2022-10-23T16:43:39;8.43;;;2.60;;
57241;SDS011;43095;53.302;5.786;2022-10-23T16:46:33;9.30;;;3.10;;
57241;SDS011;43095;53.302;5.786;2022-10-23T16:49:10;5.00;;;2.78;;
57241;SDS011;43095;53.302;5.786;2022-10-23T16:51:49;9.32;;;3.17;;
57241;SDS011;43095;53.302;5.786;2022-10-23T16:54:17;7.07;;;3.13;;
57241;SDS011;43095;53.302;5.786;2022-10-23T16:57:11;6.63;;;3.15;;
57241;SDS011;43095;53.302;5.786;2022-10-23T16:59:49;7.80;;;3.00;;
57241;SDS011;43095;53.302;5.786;2022-10-23T17:02:41;6.50;;;2.80;;
57241;SDS011;43095;53.302;5.786;2022-10-23T17:05:26;9.60;;;3.38;;
57241;SDS011;43095;53.302;5.786;2022-10-23T17:08:18;4.60;;;2.83;;
57241;SDS011;43095;53.302;5.786;2022-10-23T17:10:46;9.70;;;3.15;;
57241;SDS011;43095;53.302;5.786;2022-10-23T17:13:13;5.70;;;2.90;;
57241;SDS011;43095;53.302;5.786;2022-10-23T17:15:41;5.25;;;3.10;;
57241;SDS011;43095;53.302;5.786;2022-10-23T17:18:19;7.25;;;3.50;;
57241;SDS011;43095;53.302;5.786;2022-10-23T17:20:50;5.50;;;3.35;;
57241;SDS011;43095;53.302;5.786;2022-10-23T17:23:25;5.38;;;3.03;;
57241;SDS011;43095;53.302;5.786;2022-10-23T17:25:54;8.25;;;3.33;;
57241;SDS011;43095;53.302;5.786;2022-10-23T17:28:29;9.60;;;4.00;;
57241;SDS011;43095;53.302;5.786;2022-10-23T17:30:57;5.85;;;3.35;;
57241;SDS011;43095;53.302;5.786;2022-10-23T17:33:32;7.88;;;3.10;;
57241;SDS011;43095;53.302;5.786;2022-10-23T17:36:04;8.20;;;3.05;;
57241;SDS011;43095;53.302;5.786;2022-10-23T17:38:35;9.07;;;3.20;;
57241;SDS011;43095;53.302;5.786;2022-10-23T17:41:05;7.72;;;3.30;;
57241;SDS011;43095;53.302;5.786;2022-10-23T17:43:37;5.80;;;3.10;;
57241;SDS011;43095;53.302;5.786;2022-10-23T17:46:09;10.55;;;3.47;;
57241;SDS011;43095;53.302;5.786;2022-10-23T17:49:00;7.82;;;3.55;;
57241;SDS011;43095;53.302;5.786;2022-10-23T17:51:32;9.45;;;4.15;;